Time;durP1;ratioP1;P1;durP2;ratioP2;P2;SDS_P1;SDS_P2;PMS_P1;PMS_P2;Temp;Humidity;BMP_temperature;BMP_pressure;BME280_temperature;BME280_humidity;BME280_pressure;Samples;Min_cycle;Max_cycle;Signal;HPM_P1;HPM_P2
2022/04/29 00:00:34;;;;;;;6.60;5.63;;;12.20;99.90;;;;;;5053286;28;20210;-67
2022/04/29 00:03:01;;;;;;;10.93;6.47;;;12.10;99.90;;;;;;5071065;28;20207;-68
2022/04/29 00:05:28;;;;;;;7.20;5.93;;;11.70;99.90;;;;;;5070492;28;20302;-67
2022/04/29 00:07:56;;;;;;;6.63;5.97;;;11.70;99.90;;;;;;5070609;28;20212;-68
2022/04/29 00:10:25;;;;;;;8.40;5.80;;;11.70;99.90;;;;;;5070612;28;20223;-67
2022/04/29 00:12:53;;;;;;;6.83;5.43;;;11.80;99.90;;;;;;5063768;28;20294;-67
2022/04/29 00:15:21;;;;;;;7.97;5.67;;;11.70;99.90;;;;;;5050709;28;20210;-67
2022/04/29 00:17:49;;;;;;;6.60;5.73;;;11.70;99.90;;;;;;5050478;28;20699;-67
2022/04/29 00:20:16;;;;;;;7.53;5.73;;;11.70;99.90;;;;;;5050689;28;21062;-67
2022/04/29 00:22:44;;;;;;;10.23;6.00;;;11.80;99.90;;;;;;5050535;28;20212;-67
2022/04/29 00:25:13;;;;;;;6.97;5.63;;;11.90;99.90;;;;;;5068085;28;20218;-66
2022/04/29 00:27:41;;;;;;;9.77;5.13;;;11.80;99.90;;;;;;5070738;28;20674;-67
2022/04/29 00:30:10;;;;;;;6.77;6.03;;;11.80;99.90;;;;;;5070250;28;20231;-67
2022/04/29 00:32:36;;;;;;;6.97;5.47;;;11.80;99.90;;;;;;5070501;28;20207;-67
2022/04/29 00:35:07;;;;;;;6.30;5.47;;;11.80;99.90;;;;;;5070472;28;20208;-68
2022/04/29 00:37:43;;;;;;;7.67;5.57;;;11.80;99.90;;;;;;5070395;28;20634;-69
2022/04/29 00:40:17;;;;;;;7.87;5.30;;;11.70;99.90;;;;;;5069531;28;20289;-68
2022/04/29 00:42:45;;;;;;;7.97;5.73;;;11.70;99.90;;;;;;5050463;28;20274;-68
2022/04/29 00:45:13;;;;;;;8.53;5.90;;;11.70;99.90;;;;;;5050177;28;20204;-68
2022/04/29 00:47:39;;;;;;;6.27;5.47;;;11.70;99.90;;;;;;5050241;28;20211;-67
2022/04/29 00:50:07;;;;;;;7.13;5.57;;;11.50;99.90;;;;;;5054995;28;20668;-68
2022/04/29 00:52:36;;;;;;;11.93;6.23;;;11.40;99.90;;;;;;5070186;28;20674;-68
2022/04/29 00:55:10;;;;;;;6.67;5.57;;;11.40;99.90;;;;;;5069541;28;20204;-68
2022/04/29 00:57:44;;;;;;;7.77;5.47;;;11.40;99.90;;;;;;5069871;28;20635;-68
2022/04/29 01:00:14;;;;;;;6.50;5.13;;;11.30;99.90;;;;;;5069885;28;20191;-68
2022/04/29 01:02:42;;;;;;;8.57;5.80;;;11.40;99.90;;;;;;5068225;28;20654;-68
2022/04/29 01:05:11;;;;;;;8.57;5.90;;;11.40;99.90;;;;;;5069470;28;20210;-68
2022/04/29 01:07:40;;;;;;;7.03;6.07;;;11.40;99.90;;;;;;5069909;28;20213;-68
2022/04/29 01:10:10;;;;;;;6.73;6.07;;;11.40;99.90;;;;;;5068694;28;20199;-68
2022/04/29 01:12:40;;;;;;;8.10;6.30;;;11.40;99.90;;;;;;5069920;28;20253;-68
2022/04/29 01:15:09;;;;;;;9.37;5.70;;;11.40;99.90;;;;;;5057225;28;20196;-69
2022/04/29 01:17:37;;;;;;;10.00;6.40;;;11.30;99.90;;;;;;5049828;28;20289;-69
2022/04/29 01:20:05;;;;;;;8.80;5.97;;;11.30;99.90;;;;;;5055893;28;20212;-69
2022/04/29 01:22:36;;;;;;;9.30;6.37;;;11.30;99.90;;;;;;5069602;28;20215;-69
2022/04/29 01:25:03;;;;;;;9.43;6.27;;;11.30;99.90;;;;;;5069375;28;20187;-69
2022/04/29 01:27:31;;;;;;;9.70;6.33;;;11.30;99.90;;;;;;5069275;28;20230;-69
2022/04/29 01:30:01;;;;;;;9.20;6.70;;;11.30;99.90;;;;;;5069634;28;20603;-68
2022/04/29 01:32:28;;;;;;;8.60;7.27;;;11.30;99.90;;;;;;5069276;28;20277;-68
2022/04/29 01:34:54;;;;;;;8.97;6.87;;;11.30;99.90;;;;;;5069893;28;20211;-68
2022/04/29 01:37:21;;;;;;;9.27;6.70;;;11.30;99.90;;;;;;5060687;28;20200;-67
2022/04/29 01:39:49;;;;;;;10.03;7.23;;;11.30;99.90;;;;;;5049034;28;20278;-68
2022/04/29 01:42:16;;;;;;;8.03;6.50;;;11.20;99.90;;;;;;5059237;28;20255;-68
2022/04/29 01:44:43;;;;;;;9.43;6.27;;;11.10;99.90;;;;;;5069529;28;20323;-68
2022/04/29 01:47:10;;;;;;;7.47;6.00;;;11.10;99.90;;;;;;5068878;28;20203;-68
2022/04/29 01:49:36;;;;;;;10.53;6.70;;;11.00;99.90;;;;;;5068999;28;20268;-69
2022/04/29 01:52:03;;;;;;;10.77;7.03;;;10.80;99.90;;;;;;5059037;28;20293;-68
2022/04/29 01:54:30;;;;;;;7.60;6.53;;;10.80;99.90;;;;;;5048911;28;20270;-68
2022/04/29 01:56:58;;;;;;;9.43;6.70;;;10.80;99.90;;;;;;5051059;28;20200;-68
2022/04/29 01:59:25;;;;;;;11.37;6.73;;;10.80;99.90;;;;;;5069067;28;20253;-68
2022/04/29 02:01:52;;;;;;;8.10;6.30;;;10.80;99.90;;;;;;5054900;28;20716;-68
2022/04/29 02:04:18;;;;;;;8.43;6.77;;;10.80;99.90;;;;;;5049149;28;20226;-68
2022/04/29 02:06:45;;;;;;;7.77;6.20;;;10.80;99.90;;;;;;5067830;28;20693;-68
2022/04/29 02:09:12;;;;;;;8.63;6.40;;;10.80;99.90;;;;;;5068511;28;20208;-68
2022/04/29 02:11:38;;;;;;;7.10;6.07;;;10.80;99.90;;;;;;5068708;28;20257;-68
2022/04/29 02:14:06;;;;;;;7.57;6.60;;;10.70;99.90;;;;;;5068407;28;20211;-68
2022/04/29 02:16:33;;;;;;;9.57;6.67;;;10.70;99.90;;;;;;5068085;28;21106;-67
2022/04/29 02:19:00;;;;;;;7.97;6.80;;;10.50;99.90;;;;;;5067832;28;20211;-68
2022/04/29 02:21:29;;;;;;;9.23;6.73;;;10.50;99.90;;;;;;5067668;28;20207;-68
2022/04/29 02:23:56;;;;;;;12.53;6.87;;;10.50;99.90;;;;;;5067977;28;20574;-67
2022/04/29 02:26:22;;;;;;;10.20;6.47;;;10.60;99.90;;;;;;5067518;28;20265;-68
2022/04/29 02:28:49;;;;;;;12.23;6.50;;;10.50;99.90;;;;;;5068113;28;20207;-68
2022/04/29 02:31:17;;;;;;;8.60;6.00;;;10.60;99.90;;;;;;5065542;28;20227;-68
2022/04/29 02:33:44;;;;;;;11.77;6.77;;;10.50;99.90;;;;;;5055380;28;20208;-68
2022/04/29 02:36:10;;;;;;;8.13;6.23;;;10.30;99.90;;;;;;5053749;28;20200;-67
2022/04/29 02:38:37;;;;;;;7.60;6.43;;;10.30;99.90;;;;;;5065433;28;20235;-68
2022/04/29 02:41:07;;;;;;;10.77;7.03;;;10.30;99.90;;;;;;5065020;28;20603;-67
2022/04/29 02:43:36;;;;;;;6.83;6.13;;;10.30;99.90;;;;;;5064330;28;20288;-68
2022/04/29 02:46:06;;;;;;;9.67;6.43;;;10.30;99.90;;;;;;5046987;28;20204;-68
2022/04/29 02:48:34;;;;;;;8.57;6.20;;;10.30;99.90;;;;;;5045805;28;20670;-67
2022/04/29 02:51:01;;;;;;;9.17;6.70;;;10.40;99.90;;;;;;5047268;28;20232;-67
2022/04/29 02:53:29;;;;;;;12.07;7.10;;;10.30;99.90;;;;;;5064772;28;20581;-68
2022/04/29 02:55:55;;;;;;;9.53;6.40;;;10.20;99.90;;;;;;5065865;28;20261;-68
2022/04/29 02:58:22;;;;;;;7.70;6.63;;;10.20;99.90;;;;;;5065786;28;20245;-68
2022/04/29 03:00:49;;;;;;;9.97;6.93;;;10.20;99.90;;;;;;5062863;28;20200;-68
2022/04/29 03:03:15;;;;;;;8.33;6.40;;;10.20;99.90;;;;;;5045459;28;20670;-67
2022/04/29 03:05:43;;;;;;;10.40;7.27;;;10.10;99.90;;;;;;5049070;28;20239;-67
2022/04/29 03:08:10;;;;;;;9.30;6.30;;;10.10;99.90;;;;;;5047236;28;20208;-68
2022/04/29 03:10:40;;;;;;;10.67;6.63;;;10.10;99.90;;;;;;5049722;28;20204;-68
2022/04/29 03:13:06;;;;;;;8.33;6.87;;;10.00;99.90;;;;;;5056206;28;20216;-68
2022/04/29 03:15:34;;;;;;;10.20;6.43;;;10.00;99.90;;;;;;5047662;28;20216;-68
2022/04/29 03:20:56;;;;;;;10.87;6.73;;;9.80;99.90;;;;;;5036825;28;20208;-68
2022/04/29 03:23:23;;;;;;;10.03;6.90;;;9.80;99.90;;;;;;5067272;28;20245;-68
2022/04/29 03:25:50;;;;;;;8.83;6.17;;;9.80;99.90;;;;;;5067524;28;20211;-68
2022/04/29 03:28:17;;;;;;;17.37;6.80;;;9.80;99.90;;;;;;5067348;28;20203;-68
2022/04/29 03:30:46;;;;;;;11.33;6.77;;;9.90;99.90;;;;;;5067583;28;20199;-68
2022/04/29 03:33:15;;;;;;;8.23;6.53;;;9.90;99.90;;;;;;5068509;28;20550;-68
2022/04/29 03:35:42;;;;;;;7.17;6.10;;;9.90;99.90;;;;;;5071586;28;20226;-68
2022/04/29 03:38:11;;;;;;;9.20;6.87;;;9.70;99.90;;;;;;5071105;28;20268;-68
2022/04/29 03:40:38;;;;;;;7.50;6.30;;;9.70;99.90;;;;;;5071326;28;20633;-68
2022/04/29 03:43:05;;;;;;;9.30;6.60;;;9.70;99.90;;;;;;5071479;28;20207;-68
2022/04/29 03:45:32;;;;;;;7.63;6.00;;;9.70;99.90;;;;;;5071304;28;20203;-68
2022/04/29 03:47:58;;;;;;;8.47;6.43;;;9.60;99.90;;;;;;5071164;28;20211;-68
2022/04/29 03:50:28;;;;;;;7.93;7.07;;;9.60;99.90;;;;;;5071287;28;20212;-68
2022/04/29 03:52:58;;;;;;;9.33;6.47;;;9.70;99.90;;;;;;5071407;28;20253;-68
2022/04/29 03:55:27;;;;;;;9.27;6.87;;;9.70;99.90;;;;;;5071552;28;20206;-68
2022/04/29 03:57:55;;;;;;;10.67;6.83;;;9.70;99.90;;;;;;5071737;28;20207;-68
2022/04/29 04:00:23;;;;;;;10.33;6.43;;;9.70;99.90;;;;;;5070641;28;20729;-68
2022/04/29 04:02:50;;;;;;;8.53;6.97;;;9.70;99.90;;;;;;5071234;28;20210;-68
2022/04/29 04:05:18;;;;;;;7.10;6.33;;;9.70;99.90;;;;;;5071096;28;20214;-68
2022/04/29 04:07:45;;;;;;;8.07;6.80;;;9.70;99.90;;;;;;5070960;28;20199;-68
2022/04/29 04:10:14;;;;;;;13.97;6.77;;;9.70;99.90;;;;;;5070706;28;20306;-68
2022/04/29 04:12:46;;;;;;;13.03;6.83;;;9.70;99.90;;;;;;5070955;28;20323;-68
2022/04/29 04:15:14;;;;;;;13.00;7.10;;;9.60;99.90;;;;;;5070602;28;20212;-68
2022/04/29 04:17:41;;;;;;;8.13;6.37;;;9.70;99.90;;;;;;5070417;28;20224;-68
2022/04/29 04:20:10;;;;;;;8.20;6.50;;;9.70;99.90;;;;;;5070575;28;20207;-69
2022/04/29 04:22:37;;;;;;;7.77;6.60;;;9.60;99.90;;;;;;5070417;28;20296;-68
2022/04/29 04:25:05;;;;;;;11.03;6.87;;;9.50;99.90;;;;;;5069922;28;20203;-69
2022/04/29 04:27:31;;;;;;;8.23;6.70;;;9.60;99.90;;;;;;5070619;28;20203;-69
2022/04/29 04:30:00;;;;;;;14.27;7.00;;;9.60;99.90;;;;;;5070419;28;20215;-68
2022/04/29 04:32:27;;;;;;;7.20;6.33;;;9.60;99.90;;;;;;5070563;28;20231;-68
2022/04/29 04:34:54;;;;;;;10.03;6.50;;;9.70;99.90;;;;;;5070491;28;20223;-68
2022/04/29 04:37:22;;;;;;;12.60;7.00;;;9.70;99.90;;;;;;5070360;28;20603;-68
2022/04/29 04:39:49;;;;;;;10.67;6.77;;;9.80;99.90;;;;;;5069937;28;20235;-68
2022/04/29 04:42:17;;;;;;;14.47;7.40;;;9.80;99.90;;;;;;5069807;28;20215;-68
2022/04/29 04:44:51;;;;;;;7.50;6.70;;;9.90;99.90;;;;;;5069749;28;20296;-68
2022/04/29 04:47:19;;;;;;;8.87;6.50;;;9.90;99.90;;;;;;5069217;28;20530;-68
2022/04/29 04:49:46;;;;;;;8.00;6.43;;;10.00;99.90;;;;;;5069987;28;20675;-68
2022/04/29 04:52:13;;;;;;;8.37;6.53;;;10.10;99.90;;;;;;5069482;28;20701;-68
2022/04/29 04:54:40;;;;;;;7.90;6.97;;;10.20;99.90;;;;;;5069928;28;20573;-68
2022/04/29 04:57:07;;;;;;;11.03;6.93;;;10.20;99.90;;;;;;5069897;28;20207;-68
2022/04/29 04:59:34;;;;;;;7.73;6.80;;;10.30;99.90;;;;;;5069928;28;20306;-68
2022/04/29 05:02:02;;;;;;;11.53;7.80;;;10.30;99.90;;;;;;5069536;28;20662;-68
2022/04/29 05:04:29;;;;;;;8.90;7.40;;;10.20;99.90;;;;;;5068330;28;20307;-68
2022/04/29 05:06:58;;;;;;;10.70;7.53;;;10.30;99.90;;;;;;5069940;28;20207;-68
2022/04/29 05:09:24;;;;;;;10.13;7.53;;;10.40;99.90;;;;;;5069669;28;20222;-68
2022/04/29 05:11:51;;;;;;;9.97;7.17;;;10.40;99.90;;;;;;5069729;28;20266;-68
2022/04/29 05:14:18;;;;;;;8.17;7.27;;;10.50;99.90;;;;;;5069697;28;20226;-68
2022/04/29 05:16:45;;;;;;;12.10;7.77;;;10.50;99.90;;;;;;5069629;28;20220;-68
2022/04/29 05:19:11;;;;;;;8.00;7.20;;;10.60;99.90;;;;;;5069680;28;20199;-68
2022/04/29 05:21:39;;;;;;;19.00;8.23;;;10.60;99.90;;;;;;5062661;28;20212;-68
2022/04/29 05:24:07;;;;;;;12.00;7.80;;;10.70;99.90;;;;;;5064684;28;20208;-68
2022/04/29 05:26:34;;;;;;;16.70;7.60;;;10.70;99.90;;;;;;5069711;28;20283;-68
2022/04/29 05:29:00;;;;;;;10.03;7.97;;;10.70;99.90;;;;;;5069404;28;20298;-68
2022/04/29 05:31:27;;;;;;;15.30;7.90;;;10.80;99.90;;;;;;5069358;28;20237;-68
2022/04/29 05:33:55;;;;;;;13.13;8.20;;;10.80;99.90;;;;;;5069196;28;20759;-68
2022/04/29 05:36:25;;;;;;;12.60;8.10;;;10.80;99.90;;;;;;5069325;28;20286;-68
2022/04/29 05:44:25;;;;;;;28.37;9.00;;;11.00;99.90;;;;;;5048993;28;20192;-68
2022/04/29 05:46:51;;;;;;;34.03;9.90;;;11.10;99.90;;;;;;5049112;28;20262;-68
2022/04/29 05:49:20;;;;;;;14.07;7.57;;;11.10;99.90;;;;;;5049085;28;20442;-68
2022/04/29 05:51:49;;;;;;;18.87;8.30;;;11.20;99.90;;;;;;5048811;28;20204;-68
2022/04/29 05:54:17;;;;;;;10.20;7.70;;;11.20;99.90;;;;;;5048280;28;20640;-68
2022/04/29 05:56:44;;;;;;;9.87;6.97;;;11.30;99.90;;;;;;5048187;28;20220;-68
2022/04/29 05:59:10;;;;;;;9.17;7.13;;;11.30;99.90;;;;;;5048798;28;20204;-68
2022/04/29 06:01:37;;;;;;;9.70;6.53;;;11.40;99.90;;;;;;5057404;28;20203;-68
2022/04/29 06:04:04;;;;;;;9.37;6.63;;;11.40;99.90;;;;;;5068587;28;20258;-68
2022/04/29 06:06:31;;;;;;;10.67;7.23;;;11.50;99.90;;;;;;5068446;28;20613;-68
2022/04/29 06:08:58;;;;;;;11.23;6.50;;;11.60;99.90;;;;;;5067953;28;20215;-68
2022/04/29 06:11:26;;;;;;;9.13;6.60;;;11.60;99.90;;;;;;5068610;28;20207;-68
2022/04/29 06:13:53;;;;;;;9.87;6.67;;;11.70;99.90;;;;;;5068538;28;20634;-68
2022/04/29 06:16:20;;;;;;;8.90;6.37;;;11.80;99.90;;;;;;5067980;28;20231;-68
2022/04/29 06:18:47;;;;;;;20.07;6.80;;;11.80;99.90;;;;;;5068333;28;20203;-68
2022/04/29 06:21:16;;;;;;;7.73;5.90;;;11.90;99.90;;;;;;5068204;28;20218;-68
2022/04/29 06:23:43;;;;;;;10.23;5.67;;;12.00;99.90;;;;;;5055528;28;20417;-68
2022/04/29 06:26:10;;;;;;;7.43;6.10;;;12.00;99.90;;;;;;5048212;28;20204;-68
2022/04/29 06:28:38;;;;;;;11.73;6.70;;;12.10;99.90;;;;;;5048327;28;20208;-68
2022/04/29 06:31:09;;;;;;;7.50;6.27;;;12.20;99.90;;;;;;5047629;28;20208;-68
2022/04/29 06:33:37;;;;;;;11.77;6.33;;;12.20;99.90;;;;;;5048207;28;20232;-68
2022/04/29 06:36:07;;;;;;;10.53;5.87;;;12.30;99.90;;;;;;5047942;28;20208;-68
2022/04/29 06:38:34;;;;;;;6.90;6.20;;;12.40;99.90;;;;;;5051077;28;20602;-68
2022/04/29 06:41:01;;;;;;;7.03;5.77;;;12.40;99.90;;;;;;5068156;28;20187;-68
2022/04/29 06:43:29;;;;;;;10.10;6.53;;;12.50;99.90;;;;;;5048239;28;21166;-68
2022/04/29 06:45:59;;;;;;;7.03;5.73;;;12.60;99.90;;;;;;5047878;28;20219;-68
2022/04/29 06:48:27;;;;;;;6.57;5.37;;;12.60;99.90;;;;;;5047767;28;20204;-68
2022/04/29 06:50:53;;;;;;;9.67;5.67;;;12.70;99.90;;;;;;5048669;28;20212;-68
2022/04/29 06:53:20;;;;;;;10.00;4.90;;;12.80;99.90;;;;;;5067487;28;20274;-68
2022/04/29 06:55:47;;;;;;;16.27;5.27;;;12.80;99.90;;;;;;5067990;28;20207;-68
2022/04/29 06:58:14;;;;;;;18.30;5.17;;;12.90;99.90;;;;;;5067988;28;20302;-68
2022/04/29 07:00:42;;;;;;;10.37;4.50;;;12.90;99.90;;;;;;5064167;28;20201;-68
2022/04/29 07:03:11;;;;;;;8.53;4.00;;;13.00;99.90;;;;;;5047320;28;20726;-68
2022/04/29 07:05:38;;;;;;;6.17;3.90;;;13.00;99.10;;;;;;5047943;28;20200;-68
2022/04/29 07:08:05;;;;;;;10.57;3.80;;;12.90;97.00;;;;;;5046995;28;20573;-68
2022/04/29 07:10:32;;;;;;;6.30;2.90;;;12.80;96.80;;;;;;5047248;28;20208;-68
2022/04/29 07:13:02;;;;;;;7.63;4.83;;;12.80;96.80;;;;;;5047374;28;20227;-68
2022/04/29 07:15:29;;;;;;;6.40;4.37;;;12.80;96.60;;;;;;5047660;28;20202;-68
2022/04/29 07:17:56;;;;;;;5.37;2.80;;;12.90;95.80;;;;;;5047536;28;20220;-68
2022/04/29 07:20:24;;;;;;;10.80;2.83;;;12.90;96.10;;;;;;5047539;28;20208;-68
2022/04/29 07:22:51;;;;;;;3.17;2.60;;;13.00;96.20;;;;;;5064456;28;20219;-68
2022/04/29 07:25:19;;;;;;;9.80;2.83;;;13.20;96.60;;;;;;5067241;28;20215;-68
2022/04/29 07:27:46;;;;;;;4.70;2.70;;;13.30;96.40;;;;;;5067613;28;20212;-68
2022/04/29 07:30:13;;;;;;;5.10;2.80;;;13.30;95.90;;;;;;5067381;28;20211;-68
2022/04/29 07:32:40;;;;;;;5.93;3.00;;;13.40;95.60;;;;;;5067460;28;20267;-68
2022/04/29 07:43:21;;;;;;;4.10;2.60;;;13.70;95.10;;;;;;5026886;28;20215;-68
2022/04/29 07:45:51;;;;;;;2.93;2.30;;;13.70;95.40;;;;;;5027531;28;20200;-68
2022/04/29 07:48:18;;;;;;;5.87;2.23;;;13.80;95.50;;;;;;5027708;28;20304;-68
2022/04/29 07:50:45;;;;;;;3.60;2.70;;;13.80;94.60;;;;;;5027594;28;20212;-68
2022/04/29 07:53:13;;;;;;;4.47;2.23;;;13.90;94.00;;;;;;5026882;28;20236;-68
2022/04/29 07:55:40;;;;;;;2.43;2.10;;;13.90;93.80;;;;;;5027357;28;20610;-68
2022/04/29 07:58:07;;;;;;;7.17;2.63;;;13.90;93.00;;;;;;5027388;28;20200;-68
2022/04/29 08:00:33;;;;;;;3.77;2.60;;;13.90;93.00;;;;;;5026825;28;20667;-68
2022/04/29 08:03:01;;;;;;;5.00;2.70;;;14.00;93.30;;;;;;5027444;28;20224;-68
2022/04/29 08:05:28;;;;;;;3.47;2.37;;;14.00;93.50;;;;;;5027426;28;20208;-68
2022/04/29 08:07:55;;;;;;;3.50;2.57;;;14.10;93.70;;;;;;5027298;28;20208;-68
2022/04/29 08:10:23;;;;;;;3.10;2.73;;;14.10;92.80;;;;;;5027083;28;20315;-68
2022/04/29 08:12:50;;;;;;;3.97;2.60;;;14.10;92.70;;;;;;5027391;28;20774;-69
2022/04/29 08:15:18;;;;;;;3.93;2.47;;;14.10;93.60;;;;;;5026810;28;20575;-68
2022/04/29 08:17:45;;;;;;;4.53;2.30;;;14.20;93.20;;;;;;5027123;28;20232;-68
2022/04/29 08:20:12;;;;;;;7.87;3.20;;;14.30;93.70;;;;;;5029548;28;20223;-68
2022/04/29 08:22:40;;;;;;;5.93;2.30;;;14.40;94.00;;;;;;5030777;28;20265;-68
2022/04/29 08:25:07;;;;;;;5.03;2.53;;;14.50;93.70;;;;;;5030231;28;20205;-68
2022/04/29 08:27:35;;;;;;;7.83;2.93;;;14.50;93.80;;;;;;5030339;28;20676;-68
2022/04/29 08:30:03;;;;;;;4.07;2.47;;;14.60;93.80;;;;;;5030171;28;20644;-68
2022/04/29 08:32:36;;;;;;;8.23;2.40;;;14.60;93.90;;;;;;5027758;28;20710;-68
2022/04/29 08:35:03;;;;;;;4.00;2.60;;;14.60;93.50;;;;;;5030428;28;20290;-68
2022/04/29 08:37:30;;;;;;;5.20;2.83;;;14.70;93.30;;;;;;5030503;28;20219;-68
2022/04/29 08:39:56;;;;;;;3.50;2.30;;;14.70;93.30;;;;;;5061969;28;20281;-68
2022/04/29 08:42:26;;;;;;;2.40;2.20;;;14.80;93.30;;;;;;5070154;28;20215;-68
2022/04/29 08:44:55;;;;;;;3.63;2.27;;;14.80;93.10;;;;;;5070341;28;20256;-68
2022/04/29 08:47:22;;;;;;;3.37;2.50;;;14.90;93.20;;;;;;5070048;28;20292;-68
2022/04/29 08:49:50;;;;;;;6.67;2.50;;;14.90;93.20;;;;;;5069997;28;20253;-68
2022/04/29 08:52:17;;;;;;;2.73;2.10;;;14.90;93.20;;;;;;5069651;28;20661;-68
2022/04/29 09:00:16;;;;;;;2.93;2.33;;;15.00;92.80;;;;;;5069876;28;20195;-68
2022/04/29 09:02:43;;;;;;;2.60;2.40;;;15.10;92.70;;;;;;5049861;28;20200;-68
2022/04/29 09:05:11;;;;;;;5.20;2.50;;;15.10;92.50;;;;;;5050162;28;20204;-68
2022/04/29 09:07:55;;;;;;;4.83;2.83;;;15.20;92.80;;;;;;5049755;28;20564;-68
2022/04/29 09:10:22;;;;;;;4.83;2.70;;;15.30;92.30;;;;;;5049559;28;20214;-68
2022/04/29 09:12:49;;;;;;;2.87;2.57;;;15.40;92.40;;;;;;5049979;28;20204;-68
2022/04/29 09:15:19;;;;;;;5.60;3.23;;;15.50;92.20;;;;;;5049441;28;20212;-68
2022/04/29 09:17:47;;;;;;;3.77;3.03;;;15.60;91.90;;;;;;5049152;28;20597;-68
2022/04/29 09:20:16;;;;;;;5.10;2.90;;;15.70;91.90;;;;;;5049577;28;20245;-68
2022/04/29 09:22:46;;;;;;;2.83;2.50;;;15.80;91.70;;;;;;5064972;28;20654;-68
2022/04/29 09:25:13;;;;;;;4.40;3.07;;;15.90;91.50;;;;;;5069209;28;20208;-68
2022/04/29 09:27:58;;;;;;;3.60;2.90;;;16.00;91.50;;;;;;5069106;28;20211;-68
2022/04/29 09:30:40;;;;;;;3.43;2.63;;;16.00;91.10;;;;;;5067556;28;20277;-68
2022/04/29 09:33:08;;;;;;;5.07;2.80;;;15.90;90.70;;;;;;5069033;28;20223;-68
2022/04/29 09:35:42;;;;;;;4.70;2.70;;;15.90;90.80;;;;;;5069509;28;20211;-68
2022/04/29 09:40:58;;;;;;;3.57;3.07;;;15.80;91.50;;;;;;5069117;28;20207;-68
2022/04/29 09:43:36;;;;;;;3.23;2.93;;;15.80;91.10;;;;;;5068774;28;20662;-68
2022/04/29 09:46:20;;;;;;;3.33;2.83;;;15.80;91.10;;;;;;5068713;28;20665;-68
2022/04/29 09:48:59;;;;;;;3.27;3.07;;;15.80;91.60;;;;;;5069073;28;20260;-68
2022/04/29 09:51:43;;;;;;;3.77;3.03;;;15.90;92.00;;;;;;5069006;28;20211;-68
2022/04/29 09:54:13;;;;;;;3.77;3.37;;;15.90;92.30;;;;;;5068370;28;20222;-68
2022/04/29 09:56:39;;;;;;;4.67;3.27;;;16.00;91.50;;;;;;5069186;28;20804;-68
2022/04/29 09:59:08;;;;;;;11.70;4.13;;;16.10;91.30;;;;;;5068635;28;20280;-68
2022/04/29 10:01:36;;;;;;;8.13;3.90;;;16.10;90.80;;;;;;5068971;28;20207;-68
2022/04/29 10:04:03;;;;;;;3.90;2.80;;;16.30;90.70;;;;;;5068817;28;20203;-68
2022/04/29 10:06:32;;;;;;;4.03;2.93;;;16.40;91.30;;;;;;5068819;28;20302;-68
2022/04/29 10:09:00;;;;;;;4.40;2.80;;;16.40;91.30;;;;;;5068434;28;20211;-69
2022/04/29 10:11:28;;;;;;;4.43;3.00;;;16.50;90.90;;;;;;5068796;28;20218;-68
2022/04/29 10:13:56;;;;;;;3.20;2.90;;;16.70;91.00;;;;;;5068598;28;20227;-68
2022/04/29 10:16:26;;;;;;;3.50;2.97;;;16.80;91.00;;;;;;5068654;28;20228;-68
2022/04/29 10:21:48;;;;;;;3.53;3.20;;;17.00;90.10;;;;;;5068257;28;20234;-68
2022/04/29 10:24:15;;;;;;;4.13;3.27;;;16.90;86.70;;;;;;5067551;28;20269;-68
2022/04/29 10:26:41;;;;;;;3.73;2.80;;;16.80;87.40;;;;;;5068294;28;20207;-68
2022/04/29 10:29:08;;;;;;;3.20;2.60;;;16.80;88.80;;;;;;5068083;28;20213;-68
2022/04/29 10:31:35;;;;;;;4.13;3.00;;;17.00;89.50;;;;;;5067681;28;20214;-68
2022/04/29 10:34:31;;;;;;;3.73;2.90;;;17.00;89.00;;;;;;5067993;28;20588;-68
2022/04/29 10:36:59;;;;;;;5.23;2.77;;;17.00;88.30;;;;;;5068285;28;20265;-68
2022/04/29 10:39:25;;;;;;;3.50;2.50;;;16.90;87.60;;;;;;5067552;28;20243;-68
2022/04/29 10:42:00;;;;;;;2.80;2.50;;;17.00;87.00;;;;;;5067115;28;20272;-68
2022/04/29 10:44:27;;;;;;;5.47;2.73;;;17.10;85.60;;;;;;5067959;28;20223;-68
2022/04/29 10:46:53;;;;;;;5.67;2.63;;;17.20;85.80;;;;;;5068034;28;20207;-68
2022/04/29 10:49:26;;;;;;;2.90;2.30;;;17.20;85.10;;;;;;5067863;28;20203;-68
2022/04/29 10:51:54;;;;;;;2.63;2.40;;;17.30;85.70;;;;;;5067898;28;20212;-68
2022/04/29 10:54:43;;;;;;;3.13;2.87;;;17.40;86.90;;;;;;5067024;28;20710;-68
2022/04/29 10:57:12;;;;;;;3.10;2.70;;;17.50;82.80;;;;;;5067726;28;20651;-68
2022/04/29 10:59:50;;;;;;;4.63;2.90;;;17.60;84.20;;;;;;5067664;28;20233;-68
2022/04/29 11:02:25;;;;;;;3.57;3.00;;;17.80;85.40;;;;;;5066995;28;20568;-68
2022/04/29 11:04:52;;;;;;;4.10;2.57;;;17.80;82.50;;;;;;5068027;28;20261;-68
2022/04/29 11:07:42;;;;;;;3.00;2.67;;;17.90;83.60;;;;;;5067719;28;20249;-68
2022/04/29 11:10:10;;;;;;;4.17;2.90;;;18.00;84.00;;;;;;5067269;28;20280;-68
2022/04/29 11:12:39;;;;;;;4.70;3.00;;;18.20;83.50;;;;;;5067386;28;20298;-68
2022/04/29 11:15:14;;;;;;;3.63;2.20;;;18.30;82.70;;;;;;5067289;28;20234;-68
2022/04/29 11:17:41;;;;;;;5.47;2.70;;;18.50;83.60;;;;;;5067442;28;20233;-68
2022/04/29 11:20:22;;;;;;;3.43;3.03;;;18.60;83.80;;;;;;5067057;28;20256;-68
2022/04/29 11:25:51;;;;;;;5.20;3.10;;;18.70;83.00;;;;;;5067391;28;20218;-68
2022/04/29 11:28:18;;;;;;;4.17;2.87;;;18.70;81.80;;;;;;5067403;28;20213;-68
2022/04/29 11:30:45;;;;;;;3.10;2.80;;;18.70;82.70;;;;;;5067589;28;20250;-68
2022/04/29 11:33:12;;;;;;;2.77;2.30;;;18.90;81.70;;;;;;5067358;28;20203;-68
2022/04/29 11:35:39;;;;;;;4.43;2.73;;;18.90;80.10;;;;;;5067327;28;20661;-69
2022/04/29 11:38:09;;;;;;;3.37;2.70;;;19.00;80.00;;;;;;5066572;28;20551;-70
2022/04/29 11:40:39;;;;;;;5.77;3.17;;;19.10;80.80;;;;;;5047331;28;20199;-68
2022/04/29 11:43:10;;;;;;;7.13;4.00;;;19.10;80.20;;;;;;5063668;28;20765;-68
2022/04/29 11:45:38;;;;;;;5.27;3.50;;;19.10;80.50;;;;;;5067143;28;20318;-68
2022/04/29 11:48:06;;;;;;;4.20;3.03;;;19.30;80.30;;;;;;5067202;28;20204;-68
2022/04/29 11:50:34;;;;;;;5.73;2.60;;;19.50;80.30;;;;;;5067590;28;20207;-68
2022/04/29 11:53:05;;;;;;;3.70;2.17;;;19.50;80.10;;;;;;5067151;28;20211;-68
2022/04/29 11:55:33;;;;;;;4.13;2.20;;;19.60;80.00;;;;;;5070665;28;20238;-68
2022/04/29 11:58:01;;;;;;;3.20;2.30;;;19.70;79.70;;;;;;5070988;28;20229;-68
2022/04/29 12:00:30;;;;;;;3.90;2.70;;;19.70;79.30;;;;;;5071269;28;20203;-68
2022/04/29 12:02:59;;;;;;;3.70;2.50;;;19.80;78.20;;;;;;5071401;28;20216;-68
2022/04/29 12:05:27;;;;;;;4.53;2.97;;;19.70;76.90;;;;;;5071260;28;20199;-68
2022/04/29 12:07:54;;;;;;;3.27;2.63;;;19.80;77.40;;;;;;5071161;28;20211;-68
2022/04/29 12:10:22;;;;;;;4.97;2.37;;;20.00;76.70;;;;;;5073028;28;20229;-68
2022/04/29 12:12:54;;;;;;;4.00;3.27;;;20.00;77.30;;;;;;5071175;28;20209;-68
2022/04/29 12:15:25;;;;;;;4.07;2.80;;;20.10;77.40;;;;;;5070886;28;20269;-68
2022/04/29 12:17:56;;;;;;;2.83;2.23;;;20.20;77.90;;;;;;5070675;28;20558;-68
2022/04/29 12:20:23;;;;;;;2.83;2.50;;;20.30;78.00;;;;;;5070462;28;20200;-68
2022/04/29 12:22:52;;;;;;;2.67;2.40;;;20.50;76.60;;;;;;5070606;28;20207;-68
2022/04/29 12:25:24;;;;;;;2.80;2.30;;;20.50;75.20;;;;;;5070231;28;20218;-68
2022/04/29 12:28:09;;;;;;;3.20;2.47;;;20.60;76.90;;;;;;5070833;28;20195;-68
2022/04/29 12:36:08;;;;;;;2.67;2.47;;;20.90;74.00;;;;;;5070418;28;20246;-68
2022/04/29 12:38:35;;;;;;;3.27;2.50;;;20.90;74.80;;;;;;5069638;28;20781;-69
2022/04/29 12:41:15;;;;;;;7.27;3.50;;;21.00;73.50;;;;;;5070334;28;20203;-69
2022/04/29 12:43:43;;;;;;;2.47;2.27;;;21.10;72.90;;;;;;5050486;28;20308;-68
2022/04/29 12:46:14;;;;;;;3.13;2.53;;;21.10;72.40;;;;;;5050334;28;20255;-68
2022/04/29 12:48:47;;;;;;;2.40;2.20;;;21.10;72.10;;;;;;5050319;28;20273;-68
2022/04/29 12:51:23;;;;;;;2.30;2.10;;;21.20;73.30;;;;;;5053389;28;20207;-68
2022/04/29 12:53:50;;;;;;;2.30;2.10;;;21.40;73.60;;;;;;5069841;28;20287;-69
2022/04/29 12:56:24;;;;;;;2.20;1.98;;;21.50;71.20;;;;;;5069521;28;20604;-68
2022/04/29 12:58:52;;;;;;;4.90;2.25;;;21.60;71.90;;;;;;5070023;28;20196;-68
2022/04/29 13:01:18;;;;;;;3.28;1.92;;;21.70;71.70;;;;;;5069695;28;20216;-69
2022/04/29 13:03:50;;;;;;;2.42;1.98;;;21.80;71.40;;;;;;5069804;28;20212;-68
2022/04/29 13:06:18;;;;;;;3.38;2.10;;;21.70;69.50;;;;;;5069440;28;20199;-68
2022/04/29 13:08:45;;;;;;;2.03;1.88;;;21.80;67.20;;;;;;5069926;28;20239;-68
2022/04/29 13:11:16;;;;;;;1.92;1.38;;;21.70;64.80;;;;;;5069677;28;20294;-68
2022/04/29 13:13:43;;;;;;;2.17;1.65;;;21.80;65.40;;;;;;5069003;28;20245;-68
2022/04/29 13:16:11;;;;;;;2.53;1.67;;;21.90;64.10;;;;;;5069525;28;20223;-68
2022/04/29 13:18:38;;;;;;;3.38;1.90;;;21.80;63.70;;;;;;5069388;28;20701;-68
2022/04/29 13:21:09;;;;;;;2.33;2.08;;;21.70;64.70;;;;;;5069340;28;20208;-68
2022/04/29 13:23:37;;;;;;;2.60;2.10;;;21.70;65.70;;;;;;5069467;28;20207;-69
2022/04/29 13:26:08;;;;;;;3.47;1.95;;;21.70;65.40;;;;;;5069797;28;20211;-68
2022/04/29 13:28:37;;;;;;;3.47;2.35;;;21.60;63.40;;;;;;5069855;28;20298;-68